Latest Coastal Weather Observations for Port Pirie Airport AWS

IDS60701

Issued at 1:21 pm CST Saturday 20 July 2024 (issued every 10 minutes, with the page automatically refreshed every 10 minutes)

About coastal observations | Map of coastal stations | Coastal observations for SA | Marine services | Other Formats
Station Details ID: 021139 Name: PORT PIRIE AERODROME AWS Lat: -33.24 Lon: 138.00 Height: 12.0 m
Data from the previous 72 hours. | See also: Recent months for locations in South Australia
Date/Time
CST
Wind Sea
Height
m
Swell Vis
km
Cloud Weather Temp
°C
Press
MSL
hPa
Rain since
9am
mm
Dir  Spd
kts
Gust
kts
Height
m
Period
s
Dir
20/01:00pm W 15 19 - - - - - - - 15.6 1019.3 0.0
20/12:30pm NW 14 19 - - - - - - - 14.9 1019.7 0.0
20/12:00pm WNW 15 19 - - - - - - - 15.2 1020.1 0.0
20/11:30am NW 13 18 - - - - - - - 14.5 1020.5 0.0
20/11:00am NW 15 19 - - - - - - - 13.8 1020.6 0.0
20/10:30am NW 16 20 - - - - - - - 13.1 1020.5 0.0
20/10:00am NW 16 21 - - - - - - - 12.4 1020.3 0.0
20/09:30am NW 15 19 - - - - - - - 11.6 1019.9 0.0
20/09:00am NW 16 22 - - - - - - - 10.9 1019.4 1.6
20/08:30am NW 13 17 - - - - - - - 10.3 1019.0 1.6
20/08:00am NW 14 18 - - - - - - - 10.1 1018.2 1.6
20/07:30am NW 13 16 - - - - - - - 9.5 1017.7 1.6
20/07:00am NW 12 15 - - - - - - - 9.9 1017.3 1.6
20/06:30am NW 13 17 - - - - - - - 10.0 1016.7 1.6
20/06:00am NW 13 16 - - - - - - - 9.8 1016.0 1.6
20/05:30am WNW 13 15 - - - - - - - 10.1 1015.5 1.6
20/05:00am WNW 14 18 - - - - - - - 9.8 1015.3 1.6
20/04:30am NW 12 15 - - - - - - - 10.4 1015.0 1.6
20/04:00am NW 13 15 - - - - - - - 9.7 1014.6 1.6
20/03:30am NW 12 16 - - - - - - - 9.4 1014.5 1.6
20/03:00am WNW 12 16 - - - - - - - 9.6 1014.5 1.6
20/02:30am WNW 15 20 - - - - - - - 10.5 1014.1 1.6
20/02:00am WNW 14 19 - - - - - - - 10.5 1013.8 1.6
20/01:30am W 16 20 - - - - - - - 10.7 1013.7 1.6
20/01:00am W 14 22 - - - - - - - 10.6 1013.2 1.6
20/12:30am W 21 30 - - - - - - - 11.1 1013.0 1.6
20/12:08am W 15 25 - - - - - - - 11.5 1012.8 1.6
20/12:00am W 11 16 - - - - - - - 11.2 1012.8 1.6
 
Date/Time
CST
Wind Sea
Height
m
Swell Vis
km
Cloud Weather Temp
°C
Press
MSL
hPa
Rain since
9am
mm
Dir  Spd
kts
Gust
kts
Height
m
Period
s
Dir
19/11:30pm WNW 16 20 - - - - - - - 11.4 1012.3 1.6
19/11:16pm WNW 15 25 - - - - - - - 11.2 1011.9 1.6
19/11:00pm WNW 15 18 - - - - - - - 11.5 1011.8 1.6
19/10:30pm WNW 13 15 - - - - - - - 11.2 1011.4 1.6
19/10:00pm W 21 27 - - - - - - - 11.2 1010.7 1.6
19/09:46pm W 24 34 - - - - - - - 11.2 1010.0 1.6
19/09:30pm W 27 36 - - - - - - - 11.4 1009.8 1.6
19/09:06pm W 26 38 - - - - - - - 12.8 1008.9 1.6
19/09:00pm WNW 27 34 - - - - - - - 12.8 1008.9 1.6
19/08:43pm WNW 29 38 - - - - - - - 13.3 1008.0 1.6
19/08:34pm WNW 21 31 - - - - - - - 13.1 1007.7 1.6
19/08:30pm NW 18 25 - - - - - - - 13.0 1007.8 1.6
19/08:00pm N 15 21 - - - - - - - 11.9 1007.4 1.6
19/07:30pm NNW 18 25 - - - - - - - 12.3 1007.6 1.6
19/07:00pm NNW 20 28 - - - - - - - 12.4 1007.2 1.6
19/06:48pm NNW 18 32 - - - - - - - 12.3 1007.0 1.6
19/06:30pm N 17 21 - - - - - - - 11.2 1006.7 1.6
19/06:00pm NNW 19 25 - - - - - - - 11.9 1006.5 1.6
19/05:30pm NNW 20 27 - - - - - - - 11.8 1006.6 1.6
19/05:00pm NNW 20 26 - - - - - - - 12.2 1006.2 1.6
19/04:30pm NNW 24 29 - - - - - - - 11.7 1005.7 1.6
19/04:00pm NNW 23 29 - - - - - - - 11.5 1005.2 1.4
19/03:30pm N 19 25 - - - - - - - 11.5 1004.8 0.8
19/03:00pm N 20 29 - - - - - - - 11.8 1005.3 0.0
19/02:30pm N 23 30 - - - - - - - 13.0 1005.7 0.0
19/02:00pm N 23 33 - - - - - - - 13.2 1005.6 0.0
19/01:53pm N 23 33 - - - - - - - 13.1 1005.6 0.0
19/01:30pm N 22 29 - - - - - - - 12.9 1006.0 0.0
19/01:00pm N 22 29 - - - - - - - 13.0 1006.2 0.0
19/12:30pm N 22 28 - - - - - - - 12.9 1007.4 0.0
19/12:00pm N 21 30 - - - - - - - 12.7 1008.1 0.0
19/11:32am N 22 32 - - - - - - - 12.7 1008.7 0.0
19/11:30am N 22 29 - - - - - - - 12.5 1008.9 0.0
19/11:00am NNW 22 31 - - - - - - - 12.3 1009.7 0.0
19/10:58am NNW 23 33 - - - - - - - 12.3 1009.9 0.0
19/10:30am NNW 25 33 - - - - - - - 12.4 1010.2 0.0
19/10:00am NNW 24 32 - - - - - - - 12.5 1010.3 0.0
19/09:30am N 25 36 - - - - - - - 12.5 1009.9 0.0
19/09:01am NNW 23 33 - - - - - - - 12.3 1010.5 0.0
19/09:00am N 23 31 - - - - - - - 12.2 1010.4 0.0
19/08:41am NNW 23 35 - - - - - - - 12.3 1010.8 0.0
19/08:30am N 24 30 - - - - - - - 12.2 1011.0 0.0
19/08:00am NNW 21 28 - - - - - - - 12.0 1011.0 0.0
19/07:46am NNW 23 33 - - - - - - - 12.2 1011.4 0.0
19/07:30am NNW 22 29 - - - - - - - 12.1 1011.3 0.0
19/07:00am N 22 29 - - - - - - - 11.8 1011.5 0.0
19/06:30am N 24 33 - - - - - - - 12.0 1012.1 0.0
19/06:21am N 23 33 - - - - - - - 12.0 1011.8 0.0
19/06:00am N 22 29 - - - - - - - 11.8 1012.0 0.0
19/05:30am N 21 27 - - - - - - - 11.8 1012.2 0.0
19/05:00am N 21 30 - - - - - - - 11.8 1012.6 0.0
19/04:30am NNW 18 23 - - - - - - - 11.6 1013.4 0.0
19/04:00am N 19 25 - - - - - - - 11.6 1013.5 0.0
19/03:30am N 19 25 - - - - - - - 11.7 1014.2 0.0
19/03:00am N 18 25 - - - - - - - 12.0 1015.0 0.0
19/02:30am NNW 18 24 - - - - - - - 12.0 1015.6 0.0
19/02:00am N 19 24 - - - - - - - 11.9 1015.5 0.0
19/01:30am NNW 19 27 - - - - - - - 11.7 1015.6 0.0
19/01:00am NNW 14 18 - - - - - - - 11.7 1015.7 0.0
19/12:30am N 13 19 - - - - - - - 11.8 1015.6 0.0
19/12:00am N 15 19 - - - - - - - 11.6 1016.2 0.0
 
Date/Time
CST
Wind Sea
Height
m
Swell Vis
km
Cloud Weather Temp
°C
Press
MSL
hPa
Rain since
9am
mm
Dir  Spd
kts
Gust
kts
Height
m
Period
s
Dir
18/11:30pm N 13 17 - - - - - - - 11.6 1016.3 0.0
18/11:00pm N 13 18 - - - - - - - 11.4 1016.9 0.0
18/10:30pm N 12 17 - - - - - - - 11.2 1017.0 0.0
18/10:00pm N 11 15 - - - - - - - 11.3 1017.8 0.0
18/09:30pm N 12 17 - - - - - - - 11.5 1018.5 0.0
18/09:00pm N 9 11 - - - - - - - 11.0 1019.0 0.0
18/08:30pm N 10 14 - - - - - - - 11.4 1018.6 0.0
18/08:00pm N 11 15 - - - - - - - 11.6 1018.1 0.0
18/07:30pm N 11 14 - - - - - - - 11.5 1019.2 0.0
18/07:00pm NNE 11 13 - - - - - - - 11.5 1017.4 0.0
18/06:30pm N 13 17 - - - - - - - 12.1 1018.6 0.0
18/06:00pm N 12 15 - - - - - - - 12.0 1018.9 0.0
18/05:30pm N 12 15 - - - - - - - 12.0 1019.1 0.0
18/05:00pm NNW 9 14 - - - - - - - 12.1 1019.4 0.0
18/04:30pm NNW 9 11 - - - - - - - 12.6 1019.5 0.0
18/04:00pm N 9 12 - - - - - - - 13.2 1018.8 0.0
18/03:30pm N 13 17 - - - - - - - 13.3 1018.7 0.0
18/03:00pm N 10 14 - - - - - - - 13.4 1019.1 0.0
18/02:30pm N 9 11 - - - - - - - 12.9 1019.5 0.0
18/02:00pm N 9 12 - - - - - - - 12.5 1019.7 0.0
18/01:30pm NNW 9 12 - - - - - - - 12.6 1020.5 0.0
18/01:00pm NNW 10 13 - - - - - - - 12.8 1020.8 0.0
18/12:30pm NNW 8 11 - - - - - - - 12.2 1021.6 0.0
18/12:00pm NNW 6 9 - - - - - - - 12.7 1021.8 0.0
18/11:30am NNE 3 5 - - - - - - - 12.7 1022.9 0.0
18/11:00am NW 3 6 - - - - - - - 12.8 1023.4 0.0
18/10:30am NW 4 5 - - - - - - - 11.8 1023.7 0.0
18/10:00am N 3 4 - - - - - - - 11.8 1023.6 0.0
18/09:30am NNW 4 6 - - - - - - - 10.3 1023.4 0.0
18/09:00am NNE 4 6 - - - - - - - 9.5 1023.1 1.8
18/08:30am ENE 4 5 - - - - - - - 8.8 1023.1 1.8
18/08:00am NNE 3 4 - - - - - - - 8.0 1023.0 1.8
18/07:30am ENE 4 5 - - - - - - - 7.8 1023.1 1.8
18/07:00am CALM 0 0 - - - - - - - 7.6 1023.3 1.8
18/06:30am W 3 5 - - - - - - - 7.5 1023.2 1.8
18/06:00am CALM 0 0 - - - - - - - 7.1 1023.0 1.8
18/05:30am E 2 4 - - - - - - - 7.8 1022.7 1.8
18/05:00am ESE 2 3 - - - - - - - 7.7 1022.5 1.8
18/04:30am ESE 1 4 - - - - - - - 7.4 1022.6 1.8
18/04:00am SSW 2 4 - - - - - - - 7.2 1023.0 1.8
18/03:30am SW 3 4 - - - - - - - 6.8 1023.1 1.8
18/03:00am SW 4 6 - - - - - - - 6.4 1023.0 1.8
18/02:30am ESE 2 4 - - - - - - - 6.5 1022.5 1.8
18/02:00am SE 5 6 - - - - - - - 6.9 1022.4 1.8
18/01:30am SE 6 7 - - - - - - - 6.9 1022.2 1.8
18/01:00am ESE 5 6 - - - - - - - 6.9 1022.4 1.8
18/12:30am ESE 6 6 - - - - - - - 7.6 1022.5 1.8
18/12:00am ESE 7 7 - - - - - - - 7.5 1022.5 1.8
 
Date/Time
CST
Wind Sea
Height
m
Swell Vis
km
Cloud Weather Temp
°C
Press
MSL
hPa
Rain since
9am
mm
Dir  Spd
kts
Gust
kts
Height
m
Period
s
Dir
17/11:30pm SE 7 8 - - - - - - - 8.4 1022.7 1.8
17/11:00pm SE 6 8 - - - - - - - 9.2 1022.9 1.8
17/10:30pm S 6 8 - - - - - - - 9.5 1023.2 1.8
17/10:00pm S 8 10 - - - - - - - 9.9 1023.1 1.8
17/09:30pm SSW 9 11 - - - - - - - 10.3 1023.0 1.8
17/09:00pm S 6 7 - - - - - - - 10.4 1022.9 1.8
17/08:30pm S 7 8 - - - - - - - 10.4 1022.5 1.8
17/08:00pm S 7 8 - - - - - - - 10.5 1022.3 1.8
17/07:30pm S 8 9 - - - - - - - 10.6 1022.2 1.8
17/07:00pm S 9 11 - - - - - - - 10.7 1021.8 1.8
17/06:30pm SSW 8 9 - - - - - - - 11.1 1021.4 1.8
17/06:00pm SSW 11 16 - - - - - - Rain 11.3 1020.9 1.8
17/05:30pm SSW 15 20 - - - - - - - 11.7 1020.5 1.2
17/05:16pm SW 16 27 - - - - - - - 12.4 1019.9 1.2
17/05:00pm SW 15 21 - - - - - - - 12.9 1019.8 1.2
17/04:30pm SW 15 20 - - - - - - - 13.0 1019.3 1.2
17/04:00pm SSW 19 27 - - - - - - - 11.7 1019.2 1.2
17/03:30pm SSW 17 23 - - - - - - - 12.3 1018.8 1.2
17/03:00pm SW 18 23 - - - - - - Recent precip. 12.9 1018.6 1.2
17/02:30pm SW 20 24 - - - - - - - 12.7 1018.6 1.2
17/02:00pm SW 20 25 - - - - - - - 13.0 1018.7 1.0
17/01:30pm SW 15 21 - - - - - - - 12.0 1018.9 1.0

Other formats

Comma delimited format used in spreadsheet applications
http://www.bom.gov.au/fwo/IDS60701/IDS60701.99749.axf

JavaScript Object Notation format (JSON) in row-major order
http://www.bom.gov.au/fwo/IDS60701/IDS60701.99749.json

Data quality

Most of these data are generated automatically and are frequently updated. Quality checks on data are not normally performed. It is possible for incorrect values to appear. Refer to information at About Latest Weather Observations and please check the disclaimer before using these data.